Capitol Logistics 2451

Operating for GTI



KATL
Hartsfield - Jackson Atlanta International Airport
Atlanta, Georgia
KJFK
John F Kennedy International Airport
New York, New York

Activity Log

Date Flight Route Aircraft Duration
No Flights Yet

Route Details

Aircraft Information
Primary: Boeing 767-300BDSF
Backup: Boeing 757-200SF
Route Data
Distance: 661nm
Duration: 2h 00m
Recm'd Route: PHIIL2 GRD Q64 TYI J209 ORF J121 SIE CAMRN4
Origin Wx: KATL 141852Z 21010G20KT 10SM SCT090 SCT150 OVC200 27/06 A3001 RMK AO2 SLP155 ACC N-OHD-S DSNT W-NW T02670061
Dest. Wx: KJFK 141851Z 17010KT 10SM FEW050 BKN100 BKN250 15/08 A2999 RMK AO2 SLP154 T01500078
Notes: